sensor_id;sensor_type;location;lat;lon;timestamp;temperature;humidity
66708;DHT22;53622;0.000;0.000;2022-12-11T00:00:20;18.90;47.90
66708;DHT22;53622;0.000;0.000;2022-12-11T00:02:49;18.90;47.90
66708;DHT22;53622;0.000;0.000;2022-12-11T00:05:18;18.90;47.90
66708;DHT22;53622;0.000;0.000;2022-12-11T00:07:48;18.90;47.80
66708;DHT22;53622;0.000;0.000;2022-12-11T00:10:18;18.90;48.00
66708;DHT22;53622;0.000;0.000;2022-12-11T00:12:48;18.90;47.80
66708;DHT22;53622;0.000;0.000;2022-12-11T00:15:17;18.90;47.80
66708;DHT22;53622;0.000;0.000;2022-12-11T00:17:46;18.90;47.90
66708;DHT22;53622;0.000;0.000;2022-12-11T00:20:16;18.90;47.80
66708;DHT22;53622;0.000;0.000;2022-12-11T00:22:45;18.80;47.80
66708;DHT22;53622;0.000;0.000;2022-12-11T00:25:14;18.80;47.70
66708;DHT22;53622;0.000;0.000;2022-12-11T00:27:46;18.80;47.70
66708;DHT22;53622;0.000;0.000;2022-12-11T00:30:16;18.80;47.70
66708;DHT22;53622;0.000;0.000;2022-12-11T00:32:45;18.80;47.80
66708;DHT22;53622;0.000;0.000;2022-12-11T00:35:14;18.80;47.80
66708;DHT22;53622;0.000;0.000;2022-12-11T00:37:44;18.80;47.80
66708;DHT22;53622;0.000;0.000;2022-12-11T00:40:13;18.70;47.70
66708;DHT22;53622;0.000;0.000;2022-12-11T00:42:42;18.70;47.70
66708;DHT22;53622;0.000;0.000;2022-12-11T00:45:13;18.70;47.70
66708;DHT22;53622;0.000;0.000;2022-12-11T00:47:42;18.70;47.70
66708;DHT22;53622;0.000;0.000;2022-12-11T00:50:11;18.70;47.70
66708;DHT22;53622;0.000;0.000;2022-12-11T00:52:41;18.70;47.70
66708;DHT22;53622;0.000;0.000;2022-12-11T00:55:10;18.70;47.70
66708;DHT22;53622;0.000;0.000;2022-12-11T00:57:40;18.70;48.00
66708;DHT22;53622;0.000;0.000;2022-12-11T01:00:11;18.70;47.70
66708;DHT22;53622;0.000;0.000;2022-12-11T01:02:41;18.70;47.70
66708;DHT22;53622;0.000;0.000;2022-12-11T01:05:11;18.60;47.60
66708;DHT22;53622;0.000;0.000;2022-12-11T01:07:40;18.60;47.70
66708;DHT22;53622;0.000;0.000;2022-12-11T01:10:10;18.60;47.80
66708;DHT22;53622;0.000;0.000;2022-12-11T01:12:53;18.60;47.60
66708;DHT22;53622;0.000;0.000;2022-12-11T01:15:25;18.60;47.60
66708;DHT22;53622;0.000;0.000;2022-12-11T01:17:56;18.60;47.70
66708;DHT22;53622;0.000;0.000;2022-12-11T01:20:26;18.60;47.60
66708;DHT22;53622;0.000;0.000;2022-12-11T01:22:58;18.50;47.60
66708;DHT22;53622;0.000;0.000;2022-12-11T01:25:28;18.50;47.60
66708;DHT22;53622;0.000;0.000;2022-12-11T01:27:58;18.50;47.60
66708;DHT22;53622;0.000;0.000;2022-12-11T01:30:28;18.50;47.60
66708;DHT22;53622;0.000;0.000;2022-12-11T01:32:59;18.50;47.60
66708;DHT22;53622;0.000;0.000;2022-12-11T01:35:28;18.50;47.60
66708;DHT22;53622;0.000;0.000;2022-12-11T01:37:57;18.50;47.60
66708;DHT22;53622;0.000;0.000;2022-12-11T01:40:27;18.50;47.60
66708;DHT22;53622;0.000;0.000;2022-12-11T01:42:57;18.50;47.60
66708;DHT22;53622;0.000;0.000;2022-12-11T01:45:33;18.50;47.60
66708;DHT22;53622;0.000;0.000;2022-12-11T01:48:09;18.50;47.60
66708;DHT22;53622;0.000;0.000;2022-12-11T01:50:42;18.40;47.60
66708;DHT22;53622;0.000;0.000;2022-12-11T01:53:16;18.40;47.60
66708;DHT22;53622;0.000;0.000;2022-12-11T01:55:47;18.40;47.60
66708;DHT22;53622;0.000;0.000;2022-12-11T01:58:20;18.40;47.60
66708;DHT22;53622;0.000;0.000;2022-12-11T02:00:51;18.40;47.60
66708;DHT22;53622;0.000;0.000;2022-12-11T02:03:22;18.40;47.60
66708;DHT22;53622;0.000;0.000;2022-12-11T02:05:51;18.40;48.20
66708;DHT22;53622;0.000;0.000;2022-12-11T02:08:21;18.30;47.50
66708;DHT22;53622;0.000;0.000;2022-12-11T02:11:00;18.30;47.50
66708;DHT22;53622;0.000;0.000;2022-12-11T02:13:38;18.30;47.60
66708;DHT22;53622;0.000;0.000;2022-12-11T02:16:15;18.30;47.60
66708;DHT22;53622;0.000;0.000;2022-12-11T02:18:53;18.30;47.50
66708;DHT22;53622;0.000;0.000;2022-12-11T02:21:25;18.30;47.60
66708;DHT22;53622;0.000;0.000;2022-12-11T02:24:06;18.30;47.50
66708;DHT22;53622;0.000;0.000;2022-12-11T02:26:55;18.30;47.60
66708;DHT22;53622;0.000;0.000;2022-12-11T02:29:36;18.30;47.50
66708;DHT22;53622;0.000;0.000;2022-12-11T02:32:09;18.30;47.60
66708;DHT22;53622;0.000;0.000;2022-12-11T02:34:43;18.30;47.50
66708;DHT22;53622;0.000;0.000;2022-12-11T02:37:17;18.20;47.50
66708;DHT22;53622;0.000;0.000;2022-12-11T02:39:49;18.20;47.50
66708;DHT22;53622;0.000;0.000;2022-12-11T02:42:22;18.20;47.50
66708;DHT22;53622;0.000;0.000;2022-12-11T02:44:55;18.20;47.50
66708;DHT22;53622;0.000;0.000;2022-12-11T02:47:28;18.20;47.50
66708;DHT22;53622;0.000;0.000;2022-12-11T02:50:01;18.20;47.50
66708;DHT22;53622;0.000;0.000;2022-12-11T02:52:32;18.20;47.50
66708;DHT22;53622;0.000;0.000;2022-12-11T02:55:04;18.20;47.40
66708;DHT22;53622;0.000;0.000;2022-12-11T02:57:38;18.20;47.40
66708;DHT22;53622;0.000;0.000;2022-12-11T03:00:12;18.20;47.50
66708;DHT22;53622;0.000;0.000;2022-12-11T03:02:43;18.20;47.50
66708;DHT22;53622;0.000;0.000;2022-12-11T03:05:14;18.10;47.40
66708;DHT22;53622;0.000;0.000;2022-12-11T03:07:43;18.10;47.40
66708;DHT22;53622;0.000;0.000;2022-12-11T03:10:15;18.10;47.40
66708;DHT22;53622;0.000;0.000;2022-12-11T03:12:47;18.10;47.50
66708;DHT22;53622;0.000;0.000;2022-12-11T03:15:26;18.10;47.40
66708;DHT22;53622;0.000;0.000;2022-12-11T03:18:02;18.10;47.50
66708;DHT22;53622;0.000;0.000;2022-12-11T03:20:36;18.10;47.50
66708;DHT22;53622;0.000;0.000;2022-12-11T03:23:15;18.10;47.50
66708;DHT22;53622;0.000;0.000;2022-12-11T03:25:52;18.00;85.10
66708;DHT22;53622;0.000;0.000;2022-12-11T03:28:26;18.00;47.50
66708;DHT22;53622;0.000;0.000;2022-12-11T03:31:02;18.00;47.50
66708;DHT22;53622;0.000;0.000;2022-12-11T03:33:35;18.00;47.50
66708;DHT22;53622;0.000;0.000;2022-12-11T03:36:07;18.00;47.50
66708;DHT22;53622;0.000;0.000;2022-12-11T03:38:40;18.00;47.50
66708;DHT22;53622;0.000;0.000;2022-12-11T03:41:13;18.00;47.50
66708;DHT22;53622;0.000;0.000;2022-12-11T03:43:43;18.00;48.10
66708;DHT22;53622;0.000;0.000;2022-12-11T03:46:16;18.00;47.50
66708;DHT22;53622;0.000;0.000;2022-12-11T03:48:47;18.00;47.50
66708;DHT22;53622;0.000;0.000;2022-12-11T03:51:18;18.00;47.50
66708;DHT22;53622;0.000;0.000;2022-12-11T03:53:47;18.00;47.50
66708;DHT22;53622;0.000;0.000;2022-12-11T03:56:18;17.90;47.40
66708;DHT22;53622;0.000;0.000;2022-12-11T03:58:48;17.90;47.50
66708;DHT22;53622;0.000;0.000;2022-12-11T04:01:19;17.90;47.50
66708;DHT22;53622;0.000;0.000;2022-12-11T04:03:48;17.90;47.50
66708;DHT22;53622;0.000;0.000;2022-12-11T04:06:18;17.90;47.50
66708;DHT22;53622;0.000;0.000;2022-12-11T04:08:47;17.90;47.50
66708;DHT22;53622;0.000;0.000;2022-12-11T04:11:16;17.90;47.50
66708;DHT22;53622;0.000;0.000;2022-12-11T04:14:05;17.90;47.50
66708;DHT22;53622;0.000;0.000;2022-12-11T04:16:55;17.90;47.60
66708;DHT22;53622;0.000;0.000;2022-12-11T04:19:25;17.80;47.50
66708;DHT22;53622;0.000;0.000;2022-12-11T04:22:15;17.90;47.60
66708;DHT22;53622;0.000;0.000;2022-12-11T04:25:05;17.80;47.50
66708;DHT22;53622;0.000;0.000;2022-12-11T04:27:35;17.80;47.60
66708;DHT22;53622;0.000;0.000;2022-12-11T04:30:22;17.80;47.50
66708;DHT22;53622;0.000;0.000;2022-12-11T04:33:00;17.80;47.50
66708;DHT22;53622;0.000;0.000;2022-12-11T04:35:30;17.80;47.50
66708;DHT22;53622;0.000;0.000;2022-12-11T04:37:59;17.80;47.60
66708;DHT22;53622;0.000;0.000;2022-12-11T04:40:29;17.80;47.50
66708;DHT22;53622;0.000;0.000;2022-12-11T04:42:58;17.80;47.60
66708;DHT22;53622;0.000;0.000;2022-12-11T04:45:27;17.80;47.50
66708;DHT22;53622;0.000;0.000;2022-12-11T04:47:56;17.80;47.60
66708;DHT22;53622;0.000;0.000;2022-12-11T04:50:27;17.70;47.50
66708;DHT22;53622;0.000;0.000;2022-12-11T04:52:57;17.70;47.60
66708;DHT22;53622;0.000;0.000;2022-12-11T04:55:26;17.70;47.60
66708;DHT22;53622;0.000;0.000;2022-12-11T04:57:55;17.70;47.60
66708;DHT22;53622;0.000;0.000;2022-12-11T05:00:24;17.70;47.60
66708;DHT22;53622;0.000;0.000;2022-12-11T05:02:54;17.70;47.50
66708;DHT22;53622;0.000;0.000;2022-12-11T05:05:23;17.70;47.60
66708;DHT22;53622;0.000;0.000;2022-12-11T05:07:54;17.70;47.60
66708;DHT22;53622;0.000;0.000;2022-12-11T05:10:23;17.70;47.60
66708;DHT22;53622;0.000;0.000;2022-12-11T05:12:53;17.70;47.50
66708;DHT22;53622;0.000;0.000;2022-12-11T05:15:22;17.60;47.50
66708;DHT22;53622;0.000;0.000;2022-12-11T05:17:51;17.60;47.50
66708;DHT22;53622;0.000;0.000;2022-12-11T05:20:21;17.60;47.50
66708;DHT22;53622;0.000;0.000;2022-12-11T05:22:50;17.70;47.60
66708;DHT22;53622;0.000;0.000;2022-12-11T05:25:20;17.60;47.50
66708;DHT22;53622;0.000;0.000;2022-12-11T05:27:50;17.60;47.50
66708;DHT22;53622;0.000;0.000;2022-12-11T05:30:19;17.60;47.50
66708;DHT22;53622;0.000;0.000;2022-12-11T05:32:48;17.60;47.50
66708;DHT22;53622;0.000;0.000;2022-12-11T05:35:17;17.60;47.60
66708;DHT22;53622;0.000;0.000;2022-12-11T05:37:47;17.60;47.50
66708;DHT22;53622;0.000;0.000;2022-12-11T05:40:16;17.60;47.50
66708;DHT22;53622;0.000;0.000;2022-12-11T05:42:47;17.60;47.50
66708;DHT22;53622;0.000;0.000;2022-12-11T05:45:16;17.60;47.50
66708;DHT22;53622;0.000;0.000;2022-12-11T05:47:45;17.60;47.50
66708;DHT22;53622;0.000;0.000;2022-12-11T05:50:15;17.60;47.50
66708;DHT22;53622;0.000;0.000;2022-12-11T05:52:44;17.50;48.00
66708;DHT22;53622;0.000;0.000;2022-12-11T05:55:13;17.50;47.40
66708;DHT22;53622;0.000;0.000;2022-12-11T05:57:43;17.50;47.40
66708;DHT22;53622;0.000;0.000;2022-12-11T06:00:13;17.50;47.40
66708;DHT22;53622;0.000;0.000;2022-12-11T06:02:43;17.50;47.40
66708;DHT22;53622;0.000;0.000;2022-12-11T06:05:12;17.50;47.40
66708;DHT22;53622;0.000;0.000;2022-12-11T06:07:41;17.50;47.40
66708;DHT22;53622;0.000;0.000;2022-12-11T06:10:10;17.50;47.40
66708;DHT22;53622;0.000;0.000;2022-12-11T06:12:40;17.50;47.30
66708;DHT22;53622;0.000;0.000;2022-12-11T06:15:10;17.50;47.40
66708;DHT22;53622;0.000;0.000;2022-12-11T06:17:41;17.50;47.40
66708;DHT22;53622;0.000;0.000;2022-12-11T06:20:10;17.40;83.40
66708;DHT22;53622;0.000;0.000;2022-12-11T06:22:40;17.50;81.90
66708;DHT22;53622;0.000;0.000;2022-12-11T06:25:09;17.50;47.40
66708;DHT22;53622;0.000;0.000;2022-12-11T06:27:39;17.40;46.30
66708;DHT22;53622;0.000;0.000;2022-12-11T06:30:09;17.40;47.00
66708;DHT22;53622;0.000;0.000;2022-12-11T06:32:40;17.40;47.00
66708;DHT22;53622;0.000;0.000;2022-12-11T06:35:10;17.40;47.00
66708;DHT22;53622;0.000;0.000;2022-12-11T06:37:40;17.40;47.00
66708;DHT22;53622;0.000;0.000;2022-12-11T06:40:10;17.40;47.10
66708;DHT22;53622;0.000;0.000;2022-12-11T06:42:40;17.40;47.10
66708;DHT22;53622;0.000;0.000;2022-12-11T06:45:10;17.40;47.10
66708;DHT22;53622;0.000;0.000;2022-12-11T06:47:41;17.40;47.30
66708;DHT22;53622;0.000;0.000;2022-12-11T06:50:10;17.40;82.20
66708;DHT22;53622;0.000;0.000;2022-12-11T06:52:39;17.50;83.00
66708;DHT22;53622;0.000;0.000;2022-12-11T06:55:09;17.40;47.50
66708;DHT22;53622;0.000;0.000;2022-12-11T06:57:38;17.40;83.60
66708;DHT22;53622;0.000;0.000;2022-12-11T07:00:09;17.30;81.70
66708;DHT22;53622;0.000;0.000;2022-12-11T07:02:39;17.40;84.20
66708;DHT22;53622;0.000;0.000;2022-12-11T07:05:09;17.30;47.80
66708;DHT22;53622;0.000;0.000;2022-12-11T07:07:39;17.40;47.70
66708;DHT22;53622;0.000;0.000;2022-12-11T07:10:09;17.30;47.80
66708;DHT22;53622;0.000;0.000;2022-12-11T07:12:38;17.30;47.70
66708;DHT22;53622;0.000;0.000;2022-12-11T07:15:08;17.40;47.80
66708;DHT22;53622;0.000;0.000;2022-12-11T07:17:39;17.40;47.80
66708;DHT22;53622;0.000;0.000;2022-12-11T07:20:09;17.40;47.80
66708;DHT22;53622;0.000;0.000;2022-12-11T07:22:39;17.40;48.00
66708;DHT22;53622;0.000;0.000;2022-12-11T07:25:13;17.30;83.70
66708;DHT22;53622;0.000;0.000;2022-12-11T07:27:42;17.50;49.10
66708;DHT22;53622;0.000;0.000;2022-12-11T07:30:12;17.60;49.60
66708;DHT22;53622;0.000;0.000;2022-12-11T07:32:43;17.60;50.00
66708;DHT22;53622;0.000;0.000;2022-12-11T07:35:13;17.70;50.50
66708;DHT22;53622;0.000;0.000;2022-12-11T07:37:42;17.80;50.90
66708;DHT22;53622;0.000;0.000;2022-12-11T07:40:12;17.90;51.20
66708;DHT22;53622;0.000;0.000;2022-12-11T07:42:42;17.90;51.20
66708;DHT22;53622;0.000;0.000;2022-12-11T07:45:13;18.00;51.30
66708;DHT22;53622;0.000;0.000;2022-12-11T07:47:44;18.10;51.40
66708;DHT22;53622;0.000;0.000;2022-12-11T07:50:14;18.20;51.40
66708;DHT22;53622;0.000;0.000;2022-12-11T07:52:44;18.20;51.40
66708;DHT22;53622;0.000;0.000;2022-12-11T07:55:14;18.30;51.30
66708;DHT22;53622;0.000;0.000;2022-12-11T07:57:44;18.40;51.10
66708;DHT22;53622;0.000;0.000;2022-12-11T08:00:13;18.40;51.00
66708;DHT22;53622;0.000;0.000;2022-12-11T08:02:45;18.50;51.00
66708;DHT22;53622;0.000;0.000;2022-12-11T08:05:15;18.60;50.80
66708;DHT22;53622;0.000;0.000;2022-12-11T08:07:44;18.70;50.80
66708;DHT22;53622;0.000;0.000;2022-12-11T08:10:14;18.70;50.70
66708;DHT22;53622;0.000;0.000;2022-12-11T08:12:43;18.80;50.60
66708;DHT22;53622;0.000;0.000;2022-12-11T08:15:12;18.80;50.50
66708;DHT22;53622;0.000;0.000;2022-12-11T08:17:42;18.90;50.70
66708;DHT22;53622;0.000;0.000;2022-12-11T08:20:13;18.90;49.70
66708;DHT22;53622;0.000;0.000;2022-12-11T08:22:42;18.90;49.70
66708;DHT22;53622;0.000;0.000;2022-12-11T08:25:11;19.00;49.60
66708;DHT22;53622;0.000;0.000;2022-12-11T08:27:41;19.00;49.50
66708;DHT22;53622;0.000;0.000;2022-12-11T08:30:11;19.10;49.40
66708;DHT22;53622;0.000;0.000;2022-12-11T08:32:40;19.10;49.80
66708;DHT22;53622;0.000;0.000;2022-12-11T08:35:09;19.10;49.50
66708;DHT22;53622;0.000;0.000;2022-12-11T08:37:41;19.10;49.30
66708;DHT22;53622;0.000;0.000;2022-12-11T08:40:10;19.20;49.30
66708;DHT22;53622;0.000;0.000;2022-12-11T08:42:40;19.20;49.50
66708;DHT22;53622;0.000;0.000;2022-12-11T08:45:10;19.20;49.30
66708;DHT22;53622;0.000;0.000;2022-12-11T08:47:40;19.20;49.30
66708;DHT22;53622;0.000;0.000;2022-12-11T08:50:09;19.20;49.00
66708;DHT22;53622;0.000;0.000;2022-12-11T08:52:40;19.30;48.80
66708;DHT22;53622;0.000;0.000;2022-12-11T08:55:09;19.30;48.40
66708;DHT22;53622;0.000;0.000;2022-12-11T08:57:40;19.30;49.00
66708;DHT22;53622;0.000;0.000;2022-12-11T09:00:11;19.30;49.00
66708;DHT22;53622;0.000;0.000;2022-12-11T09:02:42;19.30;48.70
66708;DHT22;53622;0.000;0.000;2022-12-11T09:05:11;19.30;48.90
66708;DHT22;53622;0.000;0.000;2022-12-11T09:07:42;19.30;48.60
66708;DHT22;53622;0.000;0.000;2022-12-11T09:10:13;19.30;49.00
66708;DHT22;53622;0.000;0.000;2022-12-11T09:12:43;19.30;49.00
66708;DHT22;53622;0.000;0.000;2022-12-11T09:15:12;19.30;49.30
66708;DHT22;53622;0.000;0.000;2022-12-11T09:17:41;19.30;49.50
66708;DHT22;53622;0.000;0.000;2022-12-11T09:20:11;19.30;48.80
66708;DHT22;53622;0.000;0.000;2022-12-11T09:22:41;19.30;48.30
66708;DHT22;53622;0.000;0.000;2022-12-11T09:25:11;19.30;48.10
66708;DHT22;53622;0.000;0.000;2022-12-11T09:27:40;19.30;48.10
66708;DHT22;53622;0.000;0.000;2022-12-11T09:30:10;19.30;47.80
66708;DHT22;53622;0.000;0.000;2022-12-11T09:32:39;19.30;47.70
66708;DHT22;53622;0.000;0.000;2022-12-11T09:35:09;19.30;47.50
66708;DHT22;53622;0.000;0.000;2022-12-11T09:37:39;19.20;47.60
66708;DHT22;53622;0.000;0.000;2022-12-11T09:40:11;19.20;47.40
66708;DHT22;53622;0.000;0.000;2022-12-11T09:42:52;19.20;47.20
66708;DHT22;53622;0.000;0.000;2022-12-11T09:45:22;19.20;47.10
66708;DHT22;53622;0.000;0.000;2022-12-11T09:47:54;19.20;46.70
66708;DHT22;53622;0.000;0.000;2022-12-11T09:50:26;19.20;46.80
66708;DHT22;53622;0.000;0.000;2022-12-11T09:53:04;19.10;46.60
66708;DHT22;53622;0.000;0.000;2022-12-11T09:55:42;19.10;46.90
66708;DHT22;53622;0.000;0.000;2022-12-11T09:58:21;19.10;46.60
66708;DHT22;53622;0.000;0.000;2022-12-11T10:00:55;19.10;46.40
66708;DHT22;53622;0.000;0.000;2022-12-11T10:03:50;19.10;46.60
66708;DHT22;53622;0.000;0.000;2022-12-11T10:06:29;19.10;46.90
66708;DHT22;53622;0.000;0.000;2022-12-11T10:09:07;19.10;46.80
66708;DHT22;53622;0.000;0.000;2022-12-11T10:11:59;19.10;46.80
66708;DHT22;53622;0.000;0.000;2022-12-11T10:14:45;19.10;46.80
66708;DHT22;53622;0.000;0.000;2022-12-11T10:17:20;19.10;46.80
66708;DHT22;53622;0.000;0.000;2022-12-11T10:19:51;19.20;46.80
66708;DHT22;53622;0.000;0.000;2022-12-11T10:22:23;19.20;46.80
66708;DHT22;53622;0.000;0.000;2022-12-11T10:24:56;19.20;46.70
66708;DHT22;53622;0.000;0.000;2022-12-11T10:27:43;19.20;46.80
66708;DHT22;53622;0.000;0.000;2022-12-11T10:30:15;19.20;46.80
66708;DHT22;53622;0.000;0.000;2022-12-11T10:32:50;19.30;46.90
66708;DHT22;53622;0.000;0.000;2022-12-11T10:35:30;19.30;46.90
66708;DHT22;53622;0.000;0.000;2022-12-11T10:38:12;19.30;46.90
66708;DHT22;53622;0.000;0.000;2022-12-11T10:40:44;19.30;47.00
66708;DHT22;53622;0.000;0.000;2022-12-11T10:43:15;19.30;47.00
66708;DHT22;53622;0.000;0.000;2022-12-11T10:45:53;19.40;47.10
66708;DHT22;53622;0.000;0.000;2022-12-11T10:48:23;19.40;47.20
66708;DHT22;53622;0.000;0.000;2022-12-11T10:50:57;19.40;47.40
66708;DHT22;53622;0.000;0.000;2022-12-11T10:53:28;19.40;47.70
66708;DHT22;53622;0.000;0.000;2022-12-11T10:55:57;19.40;47.60
66708;DHT22;53622;0.000;0.000;2022-12-11T10:58:30;19.40;47.30
66708;DHT22;53622;0.000;0.000;2022-12-11T11:01:07;19.40;47.30
66708;DHT22;53622;0.000;0.000;2022-12-11T11:03:50;19.40;47.40
66708;DHT22;53622;0.000;0.000;2022-12-11T11:07:42;19.40;88.10
66708;DHT22;53622;0.000;0.000;2022-12-11T11:10:16;19.40;86.80
66708;DHT22;53622;0.000;0.000;2022-12-11T11:12:48;19.20;47.20
66708;DHT22;53622;0.000;0.000;2022-12-11T11:15:21;19.50;47.30
66708;DHT22;53622;0.000;0.000;2022-12-11T11:17:54;19.50;47.40
66708;DHT22;53622;0.000;0.000;2022-12-11T11:20:26;19.50;47.40
66708;DHT22;53622;0.000;0.000;2022-12-11T11:23:00;19.50;47.50
66708;DHT22;53622;0.000;0.000;2022-12-11T11:25:32;19.50;47.00
66708;DHT22;53622;0.000;0.000;2022-12-11T11:28:03;19.50;46.50
66708;DHT22;53622;0.000;0.000;2022-12-11T11:30:35;19.40;52.90
66708;DHT22;53622;0.000;0.000;2022-12-11T11:33:11;19.50;57.00
66708;DHT22;53622;0.000;0.000;2022-12-11T11:35:51;19.40;54.30
66708;DHT22;53622;0.000;0.000;2022-12-11T11:38:25;19.40;54.40
66708;DHT22;53622;0.000;0.000;2022-12-11T11:41:03;19.30;48.50
66708;DHT22;53622;0.000;0.000;2022-12-11T11:43:44;19.40;50.90
66708;DHT22;53622;0.000;0.000;2022-12-11T11:46:19;19.40;52.20
66708;DHT22;53622;0.000;0.000;2022-12-11T11:48:54;19.40;52.30
66708;DHT22;53622;0.000;0.000;2022-12-11T11:51:29;19.40;49.50
66708;DHT22;53622;0.000;0.000;2022-12-11T11:54:10;19.40;90.50
66708;DHT22;53622;0.000;0.000;2022-12-11T11:56:43;19.50;48.50
66708;DHT22;53622;0.000;0.000;2022-12-11T11:59:19;19.50;85.70
66708;DHT22;53622;0.000;0.000;2022-12-11T12:01:51;19.50;90.30
66708;DHT22;53622;0.000;0.000;2022-12-11T12:04:22;19.60;48.00
66708;DHT22;53622;0.000;0.000;2022-12-11T12:07:13;19.60;86.30
66708;DHT22;53622;0.000;0.000;2022-12-11T12:09:54;19.60;90.00
66708;DHT22;53622;0.000;0.000;2022-12-11T12:12:34;19.60;63.30
66708;DHT22;53622;0.000;0.000;2022-12-11T12:15:17;19.50;84.50
66708;DHT22;53622;0.000;0.000;2022-12-11T12:17:52;19.70;53.20
66708;DHT22;53622;0.000;0.000;2022-12-11T12:20:36;19.80;88.20
66708;DHT22;53622;0.000;0.000;2022-12-11T12:23:22;19.70;49.30
66708;DHT22;53622;0.000;0.000;2022-12-11T12:26:06;19.70;64.10
66708;DHT22;53622;0.000;0.000;2022-12-11T12:28:43;19.70;89.40
66708;DHT22;53622;0.000;0.000;2022-12-11T12:31:25;19.80;92.10
66708;DHT22;53622;0.000;0.000;2022-12-11T12:34:01;19.80;81.40
66708;DHT22;53622;0.000;0.000;2022-12-11T12:36:39;19.60;84.60
66708;DHT22;53622;0.000;0.000;2022-12-11T12:39:18;19.80;85.40
66708;DHT22;53622;0.000;0.000;2022-12-11T12:42:00;19.80;84.90
66708;DHT22;53622;0.000;0.000;2022-12-11T12:44:41;19.90;86.90
66708;DHT22;53622;0.000;0.000;2022-12-11T12:47:16;19.70;86.70
66708;DHT22;53622;0.000;0.000;2022-12-11T12:49:48;19.80;48.30
66708;DHT22;53622;0.000;0.000;2022-12-11T12:52:20;19.80;85.20
66708;DHT22;53622;0.000;0.000;2022-12-11T12:54:54;19.70;85.70
66708;DHT22;53622;0.000;0.000;2022-12-11T12:57:49;19.80;47.40
66708;DHT22;53622;0.000;0.000;2022-12-11T13:00:32;19.90;81.80
66708;DHT22;53622;0.000;0.000;2022-12-11T13:03:12;19.80;89.20
66708;DHT22;53622;0.000;0.000;2022-12-11T13:05:43;19.80;86.00
66708;DHT22;53622;0.000;0.000;2022-12-11T13:08:23;19.80;51.90
66708;DHT22;53622;0.000;0.000;2022-12-11T13:11:00;19.70;47.10
66708;DHT22;53622;0.000;0.000;2022-12-11T13:13:35;19.80;47.80
66708;DHT22;53622;0.000;0.000;2022-12-11T13:16:06;19.80;47.70
66708;DHT22;53622;0.000;0.000;2022-12-11T13:18:37;19.80;47.40
66708;DHT22;53622;0.000;0.000;2022-12-11T13:21:25;19.80;47.30
66708;DHT22;53622;0.000;0.000;2022-12-11T13:24:11;19.90;47.10
66708;DHT22;53622;0.000;0.000;2022-12-11T13:26:42;19.90;92.00
66708;DHT22;53622;0.000;0.000;2022-12-11T13:29:31;19.80;56.10
66708;DHT22;53622;0.000;0.000;2022-12-11T13:32:04;19.80;69.20
66708;DHT22;53622;0.000;0.000;2022-12-11T13:34:52;19.80;47.60
66708;DHT22;53622;0.000;0.000;2022-12-11T13:37:26;19.80;47.00
66708;DHT22;53622;0.000;0.000;2022-12-11T13:39:58;19.80;47.50
66708;DHT22;53622;0.000;0.000;2022-12-11T13:42:31;19.80;46.90
66708;DHT22;53622;0.000;0.000;2022-12-11T13:45:03;19.80;46.90
66708;DHT22;53622;0.000;0.000;2022-12-11T13:47:35;19.80;46.90
66708;DHT22;53622;0.000;0.000;2022-12-11T13:50:14;19.80;46.90
66708;DHT22;53622;0.000;0.000;2022-12-11T13:52:52;19.80;47.10
66708;DHT22;53622;0.000;0.000;2022-12-11T13:55:24;19.90;47.10
66708;DHT22;53622;0.000;0.000;2022-12-11T13:57:53;19.90;47.70
66708;DHT22;53622;0.000;0.000;2022-12-11T14:00:26;19.90;47.10
66708;DHT22;53622;0.000;0.000;2022-12-11T14:02:58;19.90;47.00
66708;DHT22;53622;0.000;0.000;2022-12-11T14:05:28;19.90;46.80
66708;DHT22;53622;0.000;0.000;2022-12-11T14:08:03;19.90;46.90
66708;DHT22;53622;0.000;0.000;2022-12-11T14:10:36;20.00;47.10
66708;DHT22;53622;0.000;0.000;2022-12-11T14:13:13;20.00;47.60
66708;DHT22;53622;0.000;0.000;2022-12-11T14:15:46;20.00;47.60
66708;DHT22;53622;0.000;0.000;2022-12-11T14:18:25;20.00;83.70
66708;DHT22;53622;0.000;0.000;2022-12-11T14:20:56;20.10;62.40
66708;DHT22;53622;0.000;0.000;2022-12-11T14:23:27;20.10;89.30
66708;DHT22;53622;0.000;0.000;2022-12-11T14:25:59;20.00;64.50
66708;DHT22;53622;0.000;0.000;2022-12-11T14:28:34;20.00;70.30
66708;DHT22;53622;0.000;0.000;2022-12-11T14:31:05;19.90;76.10
66708;DHT22;53622;0.000;0.000;2022-12-11T14:33:39;19.80;71.20
66708;DHT22;53622;0.000;0.000;2022-12-11T14:36:10;20.10;85.10
66708;DHT22;53622;0.000;0.000;2022-12-11T14:38:43;19.90;83.80
66708;DHT22;53622;0.000;0.000;2022-12-11T14:41:17;19.80;48.00
66708;DHT22;53622;0.000;0.000;2022-12-11T14:43:51;19.80;86.10
66708;DHT22;53622;0.000;0.000;2022-12-11T14:46:35;19.50;83.40
66708;DHT22;53622;0.000;0.000;2022-12-11T14:49:10;20.40;85.40
66708;DHT22;53622;0.000;0.000;2022-12-11T14:51:43;19.90;49.20
66708;DHT22;53622;0.000;0.000;2022-12-11T14:54:25;20.00;85.90
66708;DHT22;53622;0.000;0.000;2022-12-11T14:56:56;20.00;49.70
66708;DHT22;53622;0.000;0.000;2022-12-11T14:59:30;20.00;49.50
66708;DHT22;53622;0.000;0.000;2022-12-11T15:02:16;20.00;87.00
66708;DHT22;53622;0.000;0.000;2022-12-11T15:07:55;20.10;49.50
66708;DHT22;53622;0.000;0.000;2022-12-11T15:10:32;20.10;49.60
66708;DHT22;53622;0.000;0.000;2022-12-11T15:13:03;20.00;47.70
66708;DHT22;53622;0.000;0.000;2022-12-11T15:15:41;20.10;82.70
66708;DHT22;53622;0.000;0.000;2022-12-11T15:18:24;20.00;83.80
66708;DHT22;53622;0.000;0.000;2022-12-11T15:20:57;20.00;84.00
66708;DHT22;53622;0.000;0.000;2022-12-11T15:23:28;20.00;84.30
66708;DHT22;53622;0.000;0.000;2022-12-11T15:25:59;19.90;85.30
66708;DHT22;53622;0.000;0.000;2022-12-11T15:28:32;19.80;86.00
66708;DHT22;53622;0.000;0.000;2022-12-11T15:31:04;20.20;84.60
66708;DHT22;53622;0.000;0.000;2022-12-11T15:33:44;20.10;84.40
66708;DHT22;53622;0.000;0.000;2022-12-11T15:36:24;20.20;56.30
66708;DHT22;53622;0.000;0.000;2022-12-11T15:38:54;20.20;56.10
66708;DHT22;53622;0.000;0.000;2022-12-11T15:41:24;20.10;84.20
66708;DHT22;53622;0.000;0.000;2022-12-11T15:43:54;20.00;87.30
66708;DHT22;53622;0.000;0.000;2022-12-11T15:46:25;20.10;90.00
66708;DHT22;53622;0.000;0.000;2022-12-11T15:48:57;20.20;54.90
66708;DHT22;53622;0.000;0.000;2022-12-11T15:51:26;20.20;88.60
66708;DHT22;53622;0.000;0.000;2022-12-11T15:53:56;20.20;85.90
66708;DHT22;53622;0.000;0.000;2022-12-11T15:56:25;20.30;86.40
66708;DHT22;53622;0.000;0.000;2022-12-11T15:59:04;20.20;85.60
66708;DHT22;53622;0.000;0.000;2022-12-11T16:01:35;20.70;53.80
66708;DHT22;53622;0.000;0.000;2022-12-11T16:04:06;20.40;87.10
66708;DHT22;53622;0.000;0.000;2022-12-11T16:06:35;20.50;62.50
66708;DHT22;53622;0.000;0.000;2022-12-11T16:09:05;20.40;50.60
66708;DHT22;53622;0.000;0.000;2022-12-11T16:11:34;20.40;49.60
66708;DHT22;53622;0.000;0.000;2022-12-11T16:14:03;20.30;49.80
66708;DHT22;53622;0.000;0.000;2022-12-11T16:16:33;20.40;50.00
66708;DHT22;53622;0.000;0.000;2022-12-11T16:19:03;20.40;49.30
66708;DHT22;53622;0.000;0.000;2022-12-11T16:21:34;20.40;49.50
66708;DHT22;53622;0.000;0.000;2022-12-11T16:24:03;20.40;50.20